Latest Weather Observations for Holsworthy

IDN60901

Issued at 8:31 pm EST Sunday 25 September 2016 (issued every 10 minutes, with the page automatically refreshed every 10 minutes)

About weather observations | Map of Sydney area stations | Latest observations for Sydney area | Other Formats
Station Details ID: 066161 Name: HOLSWORTHY AERODROME AWS Lat: -33.99 Lon: 150.95 Height: 68.16 m
Data from the previous 72 hours. | See also: Recent months at Holsworthy
Date/Time
EST
Temp
°C
App
Temp
°C
Dew
Point
°C
Rel
Hum
%
Delta-T
°C
Wind Press
QNH
hPa
Press
MSL
hPa
Rain since
9am
mm
Dir  Spd
km/h
Gust
km/h
Spd
kts
Gust
kts
25/08:30pm 12.6 11.7 11.3 92 0.7 WSW 7 9 4 5 1011.0 1011.0 2.4
25/08:00pm 12.1 11.2 10.8 92 0.7 WSW 6 9 3 5 1010.6 1010.6 2.4
25/07:30pm 12.3 11.3 10.4 88 1.0 WSW 6 9 3 5 1010.1 1010.1 2.4
25/07:00pm 12.8 11.2 10.2 84 1.3 SW 9 11 5 6 1009.8 1009.8 2.4
25/06:30pm 14.0 12.1 10.4 79 1.9 S 11 17 6 9 1009.3 1009.2 2.4
25/06:00pm 14.4 11.5 11.0 80 1.8 S 17 26 9 14 1008.9 1008.8 2.4
25/05:30pm 15.7 14.6 12.1 79 2.0 S 9 15 5 8 1008.5 1008.4 2.2
25/05:00pm 16.1 12.9 11.9 76 2.3 SSE 20 32 11 17 1008.1 1008.0 2.2
25/04:38pm 16.2 15.0 12.7 80 1.9 SSE 11 15 6 8 1007.5 1007.4 2.2
25/04:30pm 15.8 14.0 12.0 78 2.1 SSE 13 17 7 9 1007.4 1007.3 2.2
25/04:14pm 15.6 12.9 11.6 77 2.2 SSE 17 20 9 11 1007.2 1007.1 0.6
25/04:00pm 16.3 14.7 11.7 74 2.5 SSE 11 15 6 8 1006.9 1006.8 0.2
25/03:30pm 18.1 15.1 10.5 61 4.1 SSE 17 26 9 14 1006.3 1006.2 0.0
25/03:00pm 18.3 14.5 9.9 58 4.5 SSE 20 28 11 15 1006.1 1006.0 0.0
25/02:30pm 17.4 14.2 11.2 67 3.4 SSE 19 24 10 13 1005.9 1005.8 0.0
25/02:00pm 19.3 15.8 10.3 56 4.9 SSE 19 28 10 15 1005.4 1005.3 0.0
25/01:30pm 21.6 17.3 9.2 45 6.6 SW 22 32 12 17 1004.7 1004.6 0.0
25/01:00pm 21.4 17.5 9.6 47 6.4 SW 20 30 11 16 1004.7 1004.6 0.0
25/12:30pm 21.0 17.6 9.3 47 6.3 W 17 24 9 13 1004.9 1004.8 0.0
25/12:00pm 21.3 17.9 10.5 50 5.9 WSW 19 32 10 17 1005.0 1004.9 0.0
25/11:30am 20.1 17.0 10.2 53 5.4 W 17 28 9 15 1005.2 1005.1 0.0
25/11:00am 18.6 15.4 9.9 57 4.7 W 17 24 9 13 1005.4 1005.3 0.0
25/10:30am 16.9 14.9 10.3 65 3.5 WNW 11 15 6 8 1005.8 1005.7 0.0
25/10:00am 16.6 15.0 10.2 66 3.4 NW 9 15 5 8 1006.2 1006.1 0.0
25/09:30am 15.8 14.4 10.8 72 2.7 NW 9 11 5 6 1006.4 1006.3 0.0
25/09:00am 15.4 14.4 11.0 75 2.4 NW 7 9 4 5 1006.6 1006.5 1.2
25/08:30am 15.6 14.7 11.2 75 2.4 WNW 7 11 4 6 1006.7 1006.6 1.2
25/08:00am 14.5 14.0 12.0 85 1.4 NW 6 9 3 5 1006.7 1006.6 1.2
25/07:30am 13.9 13.3 12.3 90 0.9 NNW 7 9 4 5 1006.6 1006.5 1.2
25/07:00am 13.5 12.9 12.4 93 0.6 N 7 9 4 5 1006.5 1006.4 1.2
25/06:30am 13.3 14.1 12.5 95 0.4 CALM 0 0 0 0 1006.5 1006.4 1.2
25/06:00am 13.3 14.1 12.4 94 0.5 CALM 0 6 0 3 1006.4 1006.3 1.2
25/05:30am 13.7 14.6 12.8 94 0.5 CALM 0 0 0 0 1006.2 1006.1 1.2
25/05:00am 14.0 13.8 12.9 93 0.6 N 6 9 3 5 1006.2 1006.1 1.0
25/04:30am 14.0 13.9 13.4 96 0.3 N 6 9 3 5 1006.2 1006.1 1.0
25/04:00am 14.1 15.2 13.5 96 0.3 CALM 0 0 0 0 1006.3 1006.2 0.8
25/03:38am 14.1 14.1 13.6 97 0.3 N 6 7 3 4 1006.4 1006.3 0.6
25/03:30am 14.2 15.4 13.7 97 0.3 CALM 0 0 0 0 1006.3 1006.2 0.6
25/03:19am 14.1 14.8 13.5 96 0.3 N 2 6 1 3 1006.1 1006.0 0.4
25/03:00am 14.0 13.7 13.4 96 0.3 WNW 7 11 4 6 1006.4 1006.3 0.2
25/02:30am 13.9 13.6 13.3 96 0.3 W 7 9 4 5 1005.9 1005.8 0.2
25/02:00am 14.0 13.7 13.4 96 0.3 SW 7 9 4 5 1005.8 1005.7 0.2
25/01:30am 14.0 13.7 13.4 96 0.3 WSW 7 9 4 5 1006.3 1006.2 0.2
25/01:00am 14.1 13.8 13.3 95 0.4 WSW 7 9 4 5 1006.8 1006.7 0.2
25/12:30am 14.2 13.9 13.4 95 0.4 SW 7 7 4 4 1007.2 1007.1 0.2
25/12:00am 14.1 13.7 13.1 94 0.6 SW 7 7 4 4 1007.5 1007.4 0.2
 
Date/Time
EST
Temp
°C
App
Temp
°C
Dew
Point
°C
Rel
Hum
%
Delta-T
°C
Wind Press
QNH
hPa
Press
MSL
hPa
Rain since
9am
mm
Dir  Spd
km/h
Gust
km/h
Spd
kts
Gust
kts
24/11:30pm 14.6 15.7 13.6 94 0.6 CALM 0 0 0 0 1007.4 1007.3 0.2
24/11:00pm 14.8 14.9 13.8 94 0.6 WSW 6 6 3 3 1007.7 1007.6 0.2
24/10:30pm 15.2 15.7 13.9 92 0.7 SE 4 6 2 3 1008.0 1007.9 0.2
24/10:00pm 15.8 15.9 14.5 92 0.7 ESE 7 11 4 6 1007.9 1007.8 0.2
24/09:30pm 16.4 17.2 14.8 90 0.9 NE 4 6 2 3 1008.2 1008.1 0.2
24/09:00pm 16.4 16.6 14.2 87 1.3 NNE 6 7 3 4 1008.4 1008.3 0.2
24/08:30pm 16.9 18.3 14.5 86 1.4 CALM 0 0 0 0 1008.6 1008.5 0.2
24/08:00pm 16.6 16.7 13.9 84 1.5 N 6 7 3 4 1008.9 1008.8 0.0
24/07:30pm 17.5 17.1 14.2 81 1.9 E 9 11 5 6 1008.2 1008.1 0.0
24/07:00pm 17.7 17.8 14.4 81 1.9 SE 7 11 4 6 1008.2 1008.1 0.0
24/06:30pm 17.9 17.2 14.4 80 2.0 ESE 11 15 6 8 1008.0 1007.9 0.0
24/06:00pm 18.1 17.0 14.4 79 2.1 ESE 13 19 7 10 1008.0 1007.9 0.0
24/05:30pm 18.4 16.9 14.1 76 2.5 ESE 15 22 8 12 1007.7 1007.6 0.0
24/05:00pm 19.1 17.4 13.7 71 3.1 ESE 15 19 8 10 1007.5 1007.4 0.0
24/04:30pm 19.1 16.8 13.1 68 3.4 E 17 22 9 12 1007.3 1007.2 0.0
24/04:00pm 19.7 16.7 12.0 61 4.3 ESE 19 24 10 13 1007.5 1007.4 0.0
24/03:30pm 20.9 18.4 13.4 62 4.3 E 19 26 10 14 1007.5 1007.4 0.0
24/03:00pm 21.7 19.6 12.5 56 5.2 ENE 15 22 8 12 1007.4 1007.3 0.0
24/02:30pm 21.9 19.5 12.5 55 5.3 ENE 17 24 9 13 1007.6 1007.5 0.0
24/02:00pm 21.9 19.6 11.6 52 5.8 ENE 15 22 8 12 1007.8 1007.7 0.0
24/01:30pm 21.2 19.3 11.8 55 5.3 NE 13 20 7 11 1008.5 1008.4 0.0
24/01:00pm 21.1 19.0 12.5 58 4.9 NE 15 19 8 10 1009.1 1009.0 0.0
24/12:30pm 21.7 20.3 13.3 59 4.8 E 13 20 7 11 1009.5 1009.5 0.0
24/12:00pm 22.3 21.6 11.4 50 6.1 N 6 13 3 7 1009.8 1009.8 0.0
24/11:30am 21.2 19.4 10.7 51 5.8 N 11 17 6 9 1010.4 1010.4 0.0
24/11:00am 21.1 20.2 11.2 53 5.5 NW 7 11 4 6 1010.9 1010.9 0.0
24/10:30am 19.9 18.9 10.9 56 4.9 N 7 11 4 6 1011.4 1011.4 0.0
24/10:00am 19.7 18.9 11.7 60 4.4 ESE 7 11 4 6 1011.9 1011.9 0.0
24/09:30am 18.2 17.2 10.3 60 4.2 NNW 6 9 3 5 1012.3 1012.3 0.0
24/09:00am 17.4 15.9 10.5 64 3.7 WSW 9 13 5 7 1012.6 1012.6 0.2
24/08:30am 16.2 14.7 10.5 69 3.0 W 9 15 5 8 1012.8 1012.8 0.2
24/08:00am 14.8 12.9 10.4 75 2.3 W 11 15 6 8 1013.0 1013.0 0.2
24/07:30am 13.6 12.4 10.2 80 1.8 W 7 9 4 5 1013.1 1013.1 0.2
24/07:00am 12.0 10.2 9.6 85 1.2 WSW 9 11 5 6 1012.7 1012.7 0.2
24/06:30am 10.4 8.0 8.8 90 0.8 SW 11 15 6 8 1012.4 1012.4 0.2
24/06:00am 9.4 6.5 8.3 93 0.5 SW 13 15 7 8 1012.2 1012.2 0.2
24/05:30am 8.8 6.9 7.6 92 0.6 SW 7 11 4 6 1011.9 1011.9 0.2
24/05:00am 9.7 6.8 8.1 90 0.8 SW 13 17 7 9 1011.7 1011.7 0.2
24/04:30am 10.2 7.7 8.1 87 1.0 SW 11 15 6 8 1011.7 1011.7 0.2
24/04:00am 10.3 7.9 8.6 89 0.8 SW 11 13 6 7 1011.8 1011.8 0.2
24/03:30am 10.6 7.9 9.0 90 0.8 SW 13 17 7 9 1011.7 1011.7 0.2
24/03:00am 10.7 8.4 9.1 90 0.8 SW 11 13 6 7 1011.6 1011.6 0.2
24/02:30am 10.8 9.0 9.6 92 0.6 SW 9 13 5 7 1011.6 1011.6 0.2
24/02:00am 10.7 8.9 9.6 93 0.6 SW 9 13 5 7 1011.7 1011.7 0.2
24/01:30am 10.2 8.6 8.8 91 0.7 WSW 7 7 4 4 1011.9 1011.9 0.2
24/01:00am 10.7 9.2 9.3 91 0.7 WSW 7 9 4 5 1012.0 1012.0 0.2
24/12:30am 11.2 9.4 9.6 90 0.8 WSW 9 11 5 6 1012.1 1012.1 0.2
24/12:00am 11.6 10.2 9.7 88 1.0 W 7 11 4 6 1012.0 1012.0 0.2
 
Date/Time
EST
Temp
°C
App
Temp
°C
Dew
Point
°C
Rel
Hum
%
Delta-T
°C
Wind Press
QNH
hPa
Press
MSL
hPa
Rain since
9am
mm
Dir  Spd
km/h
Gust
km/h
Spd
kts
Gust
kts
23/11:30pm 12.5 11.5 10.2 86 1.2 W 6 7 3 4 1012.2 1012.2 0.2
23/11:00pm 12.6 11.5 10.1 85 1.3 W 6 7 3 4 1012.3 1012.3 0.2
23/10:30pm 12.4 10.8 10.1 86 1.2 WSW 9 11 5 6 1012.3 1012.3 0.2
23/10:00pm 12.6 10.8 9.6 82 1.5 WSW 9 11 5 6 1012.4 1012.4 0.2
23/09:30pm 14.2 12.4 9.6 74 2.4 SW 9 11 5 6 1012.4 1012.4 0.2
23/09:00pm 15.0 12.2 10.0 72 2.6 S 15 22 8 12 1012.3 1012.3 0.2
23/08:30pm 15.1 13.1 10.3 73 2.5 SSW 11 15 6 8 1012.3 1012.3 0.2
23/08:00pm 15.3 12.7 10.7 74 2.4 S 15 20 8 11 1012.4 1012.4 0.2
23/07:30pm 15.5 13.0 11.1 75 2.4 SSE 15 20 8 11 1012.3 1012.3 0.2
23/07:00pm 15.7 13.6 11.3 75 2.4 SSE 13 20 7 11 1012.1 1012.1 0.2
23/06:30pm 16.0 13.5 11.2 73 2.6 SSE 15 20 8 11 1011.8 1011.8 0.2
23/06:00pm 16.5 14.6 10.6 68 3.2 SSE 11 17 6 9 1011.5 1011.5 0.2
23/05:30pm 17.4 14.4 10.5 64 3.7 SSE 17 24 9 13 1011.2 1011.2 0.2
23/05:00pm 18.3 15.3 10.7 61 4.1 SSE 17 22 9 12 1010.8 1010.8 0.2
23/04:30pm 19.3 16.0 10.8 58 4.6 SSE 19 24 10 13 1010.6 1010.6 0.2
23/04:00pm 19.4 15.7 9.6 53 5.2 S 19 24 10 13 1010.5 1010.5 0.2
23/03:30pm 20.4 16.6 9.9 51 5.7 S 20 32 11 17 1010.4 1010.4 0.2
23/03:00pm 20.6 18.1 11.0 54 5.3 S 15 26 8 14 1010.6 1010.6 0.2
23/02:30pm 20.1 16.3 9.9 52 5.5 SW 20 28 11 15 1010.6 1010.6 0.2
23/02:00pm 20.0 15.4 9.6 51 5.6 S 24 35 13 19 1010.6 1010.6 0.2
23/01:30pm 20.3 16.9 10.4 53 5.4 S 19 28 10 15 1010.7 1010.7 0.2
23/01:00pm 20.8 16.6 9.7 49 6.0 SSW 22 37 12 20 1010.7 1010.7 0.2
23/12:30pm 20.2 16.4 9.7 51 5.6 SSW 20 32 11 17 1010.9 1010.9 0.2
23/12:00pm 20.0 16.6 10.4 54 5.2 SSW 19 28 10 15 1011.3 1011.3 0.2
23/11:30am 19.8 15.7 10.0 53 5.3 SSW 22 39 12 21 1011.4 1011.4 0.2
23/11:00am 19.4 14.8 9.6 53 5.2 SSW 24 43 13 23 1011.5 1011.5 0.2
23/10:30am 19.1 15.2 9.6 54 5.0 SSW 20 32 11 17 1011.4 1011.4 0.2
23/10:00am 18.4 14.1 9.5 56 4.7 SW 22 39 12 21 1011.7 1011.7 0.0
23/09:30am 17.6 13.0 9.5 59 4.3 SW 24 33 13 18 1011.8 1011.8 0.0
23/09:00am 17.1 11.9 8.8 58 4.3 WSW 26 41 14 22 1011.9 1011.9 1.4
23/08:30am 16.5 12.0 8.5 59 4.1 WSW 22 37 12 20 1011.9 1011.9 1.4
23/08:00am 15.9 10.9 7.9 59 4.0 WSW 24 37 13 20 1011.8 1011.8 1.4
23/07:30am 15.2 10.9 7.7 61 3.7 WSW 20 30 11 16 1011.7 1011.7 1.4
23/07:00am 14.7 10.6 8.0 64 3.4 SW 19 28 10 15 1011.5 1011.5 1.4
23/06:30am 14.3 10.5 7.6 64 3.3 WSW 17 24 9 13 1011.3 1011.3 1.4
23/06:00am 13.9 10.9 7.7 66 3.1 WSW 13 20 7 11 1010.8 1010.8 1.4
23/05:30am 13.2 10.2 7.6 69 2.8 SW 13 20 7 11 1010.4 1010.4 1.4
23/05:00am 13.0 9.5 7.2 68 2.8 SW 15 22 8 12 1010.0 1010.0 1.4
23/04:30am 13.1 10.3 7.1 67 2.9 WSW 11 17 6 9 1009.4 1009.4 1.4
23/04:00am 13.7 10.2 7.0 64 3.3 WSW 15 22 8 12 1009.0 1008.9 1.4
23/03:30am 14.2 11.1 7.3 63 3.4 WSW 13 20 7 11 1009.1 1009.0 1.4
23/03:00am 14.1 10.3 7.4 64 3.3 WSW 17 24 9 13 1009.2 1009.1 1.4
23/02:30am 13.6 10.1 7.4 66 3.0 WSW 15 20 8 11 1009.2 1009.1 1.4
23/02:00am 14.0 11.0 7.5 65 3.2 WSW 13 22 7 12 1009.2 1009.1 1.4
23/01:30am 14.0 10.9 7.3 64 3.3 WSW 13 20 7 11 1009.4 1009.4 1.4
23/01:00am 14.2 11.1 7.3 63 3.4 WSW 13 22 7 12 1009.5 1009.5 1.4
23/12:30am 14.6 11.1 7.4 62 3.6 WSW 15 22 8 12 1009.5 1009.5 1.4
23/12:00am 14.8 11.4 7.6 62 3.6 WSW 15 26 8 14 1009.4 1009.4 1.4
 
Date/Time
EST
Temp
°C
App
Temp
°C
Dew
Point
°C
Rel
Hum
%
Delta-T
°C
Wind Press
QNH
hPa
Press
MSL
hPa
Rain since
9am
mm
Dir  Spd
km/h
Gust
km/h
Spd
kts
Gust
kts
22/11:30pm 15.1 11.4 7.9 62 3.6 WSW 17 26 9 14 1009.4 1009.4 1.4
22/11:00pm 15.3 11.7 8.3 63 3.5 WSW 17 24 9 13 1009.5 1009.5 1.4
22/10:30pm 15.3 11.8 8.8 65 3.3 WSW 17 30 9 16 1009.4 1009.4 1.4
22/10:00pm 15.4 12.2 8.6 64 3.5 WSW 15 24 8 13 1009.4 1009.4 1.4
22/09:30pm 15.1 12.0 8.8 66 3.2 WSW 15 20 8 11 1009.2 1009.1 1.4
22/09:00pm 15.3 13.0 9.0 66 3.2 WSW 11 20 6 11 1009.2 1009.1 1.4

Latest Capital City Observations: Canberra | Sydney | Melbourne | Brisbane | Adelaide | Perth | Hobart | Darwin

Other Formats:

Comma delimited format used in spreadsheet applications
http://www.bom.gov.au/fwo/IDN60901/IDN60901.95761.axf

JavaScript Object Notation format (JSON) in row-major order
http://www.bom.gov.au/fwo/IDN60901/IDN60901.95761.json